Time;durP1;ratioP1;P1;durP2;ratioP2;P2;SDS_P1;SDS_P2;PMS_P1;PMS_P2;Temp;Humidity;BMP_temperature;BMP_pressure;BME280_temperature;BME280_humidity;BME280_pressure;Samples;Min_cycle;Max_cycle;Signal;HPM_P1;HPM_P2
2022/04/05 00:00:40;;;;;;;;;;;9.20;99.90;;;;;;2084465;28;19909;-69
2022/04/05 00:01:41;;;;;;;;;;;9.20;99.90;;;;;;2084600;28;19963;-69
2022/04/05 00:02:41;;;;;;;;;;;9.20;99.90;;;;;;2081968;28;19917;-69
2022/04/05 00:03:42;;;;;;;;;;;9.20;99.90;;;;;;2083483;28;19913;-70
2022/04/05 00:04:43;;;;;;;;;;;9.20;99.90;;;;;;2079225;28;19913;-69
2022/04/05 00:05:44;;;;;;;;;;;9.20;99.90;;;;;;2078918;28;19936;-69
2022/04/05 00:06:44;;;;;;;;;;;9.20;99.90;;;;;;2073191;28;19922;-69
2022/04/05 00:07:45;;;;;;;;;;;9.20;99.90;;;;;;2074837;28;19916;-70
2022/04/05 00:08:45;;;;;;;;;;;9.20;99.90;;;;;;2084173;28;20388;-70
2022/04/05 00:09:46;;;;;;;;;;;9.20;99.90;;;;;;2084216;28;20007;-70
2022/04/05 00:10:46;;;;;;;;;;;9.20;99.90;;;;;;2081682;28;20034;-70
2022/04/05 00:11:47;;;;;;;;;;;9.30;99.90;;;;;;2083458;28;19948;-69
2022/04/05 00:12:47;;;;;;;;;;;9.30;99.90;;;;;;2079889;28;19921;-69
2022/04/05 00:13:47;;;;;;;;;;;9.30;99.90;;;;;;2079382;28;19909;-69
2022/04/05 00:14:48;;;;;;;;;;;9.30;99.90;;;;;;2080052;28;19999;-69
2022/04/05 00:15:49;;;;;;;;;;;9.30;99.90;;;;;;2083819;28;19944;-69
2022/04/05 00:16:49;;;;;;;;;;;9.30;99.90;;;;;;2084094;28;19917;-69
2022/04/05 00:17:50;;;;;;;;;;;9.30;99.90;;;;;;2083328;28;19909;-69
2022/04/05 00:18:50;;;;;;;;;;;9.30;99.90;;;;;;2081893;28;19909;-69
2022/04/05 00:19:50;;;;;;;;;;;9.30;99.90;;;;;;2074657;28;19914;-70
2022/04/05 00:20:51;;;;;;;;;;;9.30;99.90;;;;;;2073773;28;20021;-70
2022/04/05 00:21:54;;;;;;;;;;;9.30;99.90;;;;;;2082091;28;19998;-69
2022/04/05 00:22:54;;;;;;;;;;;9.30;99.90;;;;;;2072892;28;19913;-69
2022/04/05 00:23:55;;;;;;;;;;;9.40;99.90;;;;;;2076361;28;20573;-69
2022/04/05 00:24:55;;;;;;;;;;;9.40;99.90;;;;;;2084623;28;19920;-69
2022/04/05 00:25:56;;;;;;;;;;;9.40;99.90;;;;;;2080613;28;19941;-69
2022/04/05 00:26:57;;;;;;;;;;;9.40;99.90;;;;;;2082091;28;19909;-69
2022/04/05 00:27:58;;;;;;;;;;;9.40;99.90;;;;;;2082904;28;19909;-69
2022/04/05 00:28:58;;;;;;;;;;;9.40;99.90;;;;;;2080093;28;19974;-69
2022/04/05 00:30:02;;;;;;;;;;;9.50;99.90;;;;;;2081055;28;19913;-69
2022/04/05 00:31:02;;;;;;;;;;;9.50;99.90;;;;;;2077564;28;19913;-69
2022/04/05 00:32:03;;;;;;;;;;;9.50;99.90;;;;;;2083082;28;20361;-69
2022/04/05 00:33:03;;;;;;;;;;;9.50;99.90;;;;;;2084714;28;19920;-70
2022/04/05 00:34:04;;;;;;;;;;;9.50;99.90;;;;;;2081769;28;19932;-70
2022/04/05 00:35:05;;;;;;;;;;;9.50;99.90;;;;;;2079745;28;19948;-70
2022/04/05 00:36:06;;;;;;;;;;;9.50;99.90;;;;;;2080654;28;20417;-69
2022/04/05 00:37:07;;;;;;;;;;;9.50;99.90;;;;;;2073849;28;20289;-70
2022/04/05 00:38:08;;;;;;;;;;;9.50;99.90;;;;;;2073226;28;20356;-69
2022/04/05 00:39:09;;;;;;;;;;;9.50;99.90;;;;;;2080754;28;19987;-69
2022/04/05 00:40:10;;;;;;;;;;;9.50;99.90;;;;;;2084480;28;19913;-70
2022/04/05 00:41:11;;;;;;;;;;;9.60;99.90;;;;;;2084001;28;19910;-69
2022/04/05 00:42:11;;;;;;;;;;;9.50;99.90;;;;;;2083146;28;20303;-69
2022/04/05 00:43:12;;;;;;;;;;;9.50;99.90;;;;;;2081947;28;19913;-69
2022/04/05 00:44:12;;;;;;;;;;;9.50;99.90;;;;;;2080295;28;19917;-69
2022/04/05 00:45:16;;;;;;;;;;;9.50;99.90;;;;;;2081296;28;19917;-69
2022/04/05 00:46:16;;;;;;;;;;;9.50;99.90;;;;;;2078218;28;19909;-69
2022/04/05 00:47:18;;;;;;;;;;;9.50;99.90;;;;;;2079938;28;20435;-69
2022/04/05 00:48:28;;;;;;;;;;;9.50;99.90;;;;;;2084704;28;20320;-69
2022/04/05 00:49:30;;;;;;;;;;;9.50;99.90;;;;;;2083898;28;19921;-70
2022/04/05 00:50:32;;;;;;;;;;;9.60;99.90;;;;;;2083238;28;19916;-69
2022/04/05 00:51:33;;;;;;;;;;;9.60;99.90;;;;;;2079478;28;19913;-69
2022/04/05 00:52:33;;;;;;;;;;;9.60;99.90;;;;;;2080881;28;19952;-70
2022/04/05 00:53:34;;;;;;;;;;;9.60;99.90;;;;;;2081302;28;19909;-69
2022/04/05 00:54:36;;;;;;;;;;;9.60;99.90;;;;;;2076932;28;19964;-70
2022/04/05 00:55:38;;;;;;;;;;;9.60;99.90;;;;;;2083247;28;19921;-70
2022/04/05 00:56:40;;;;;;;;;;;9.60;99.90;;;;;;2083030;28;19909;-70
2022/04/05 00:57:41;;;;;;;;;;;9.60;99.90;;;;;;2082584;28;19913;-70
2022/04/05 00:58:42;;;;;;;;;;;9.60;99.90;;;;;;2083160;28;20445;-70
2022/04/05 00:59:44;;;;;;;;;;;9.60;99.90;;;;;;2079488;28;19960;-70
2022/04/05 01:00:47;;;;;;;;;;;9.60;99.90;;;;;;2079570;28;20707;-70
2022/04/05 01:01:49;;;;;;;;;;;9.60;99.90;;;;;;2081177;28;19913;-70
2022/04/05 01:02:50;;;;;;;;;;;9.60;99.90;;;;;;2077664;28;19917;-69
2022/04/05 01:03:51;;;;;;;;;;;9.60;99.90;;;;;;2084670;28;20374;-69
2022/04/05 01:04:52;;;;;;;;;;;9.60;99.90;;;;;;2083372;28;19912;-70
2022/04/05 01:05:52;;;;;;;;;;;9.60;99.90;;;;;;2080693;28;19966;-69
2022/04/05 01:06:53;;;;;;;;;;;9.60;99.90;;;;;;2083110;28;19992;-70
2022/04/05 01:07:55;;;;;;;;;;;9.60;99.90;;;;;;2080246;28;20360;-70
2022/04/05 01:08:56;;;;;;;;;;;9.70;99.90;;;;;;2078554;28;19967;-70
2022/04/05 01:09:58;;;;;;;;;;;9.70;99.90;;;;;;2079059;28;20016;-70
2022/04/05 01:10:59;;;;;;;;;;;9.70;99.90;;;;;;2082236;28;19937;-70
2022/04/05 01:11:59;;;;;;;;;;;9.70;99.90;;;;;;2084610;28;19917;-70
2022/04/05 01:13:00;;;;;;;;;;;9.70;99.90;;;;;;2080621;28;20383;-70
2022/04/05 01:14:00;;;;;;;;;;;9.70;99.90;;;;;;2081087;28;20009;-70
2022/04/05 01:15:01;;;;;;;;;;;9.70;99.90;;;;;;2082011;28;20360;-70
2022/04/05 01:16:01;;;;;;;;;;;9.70;99.90;;;;;;2078752;28;19974;-70
2022/04/05 01:17:03;;;;;;;;;;;9.70;99.90;;;;;;2081853;28;20273;-69
2022/04/05 01:18:03;;;;;;;;;;;9.70;99.90;;;;;;2081346;28;19932;-69
2022/04/05 01:19:05;;;;;;;;;;;9.70;99.90;;;;;;2084726;28;19910;-69
2022/04/05 01:20:06;;;;;;;;;;;9.80;99.90;;;;;;2084436;28;19955;-70
2022/04/05 01:21:06;;;;;;;;;;;9.80;99.90;;;;;;2073900;28;19955;-70
2022/04/05 01:22:06;;;;;;;;;;;9.80;99.90;;;;;;2074406;28;19924;-69
2022/04/05 01:23:07;;;;;;;;;;;9.80;99.90;;;;;;2081833;28;19909;-70
2022/04/05 01:24:11;;;;;;;;;;;9.80;99.90;;;;;;2073217;28;19996;-70
2022/04/05 01:25:13;;;;;;;;;;;9.80;99.90;;;;;;2072920;28;19987;-70
2022/04/05 01:26:13;;;;;;;;;;;9.80;99.90;;;;;;2080721;28;20353;-70
2022/04/05 01:27:18;;;;;;;;;;;9.80;99.90;;;;;;2084676;28;20666;-70
2022/04/05 01:28:19;;;;;;;;;;;9.80;99.90;;;;;;2083124;28;19913;-70
2022/04/05 01:29:21;;;;;;;;;;;9.80;99.90;;;;;;2082026;28;19955;-70
2022/04/05 01:30:21;;;;;;;;;;;9.80;99.90;;;;;;2081655;28;20419;-70
2022/04/05 01:31:22;;;;;;;;;;;9.80;99.90;;;;;;2080324;28;20601;-69
2022/04/05 01:32:22;;;;;;;;;;;9.80;99.90;;;;;;2082088;28;19913;-69
2022/04/05 01:33:23;;;;;;;;;;;9.80;99.90;;;;;;2081356;28;19956;-69
2022/04/05 01:34:25;;;;;;;;;;;9.90;99.90;;;;;;2081685;28;19959;-69
2022/04/05 01:35:25;;;;;;;;;;;9.90;99.90;;;;;;2084125;28;19909;-69
2022/04/05 01:36:26;;;;;;;;;;;9.90;99.90;;;;;;2083023;28;19920;-69
2022/04/05 01:37:26;;;;;;;;;;;9.90;99.90;;;;;;2083893;28;19909;-69
2022/04/05 01:38:26;;;;;;;;;;;9.90;99.90;;;;;;2079423;28;19963;-69
2022/04/05 01:39:29;;;;;;;;;;;9.80;99.90;;;;;;2073349;28;19998;-70
2022/04/05 01:40:30;;;;;;;;;;;9.80;99.90;;;;;;2077618;28;20008;-69
2022/04/05 01:41:30;;;;;;;;;;;9.80;99.90;;;;;;2079805;28;19916;-69
2022/04/05 01:42:33;;;;;;;;;;;9.90;99.90;;;;;;2082588;28;20360;-69
2022/04/05 01:43:34;;;;;;;;;;;9.90;99.90;;;;;;2084427;28;19909;-69
2022/04/05 01:44:35;;;;;;;;;;;9.80;99.90;;;;;;2083925;28;19909;-69
2022/04/05 01:45:36;;;;;;;;;;;9.80;99.90;;;;;;2079456;28;20388;-69
2022/04/05 01:46:37;;;;;;;;;;;9.80;99.90;;;;;;2073660;28;20482;-70
2022/04/05 01:47:39;;;;;;;;;;;9.80;99.90;;;;;;2073353;28;20426;-69
2022/04/05 01:48:39;;;;;;;;;;;9.80;99.90;;;;;;2070462;28;19909;-70
2022/04/05 01:49:41;;;;;;;;;;;9.80;99.90;;;;;;2073650;28;20468;-70
2022/04/05 01:50:42;;;;;;;;;;;9.80;99.90;;;;;;2084794;28;19908;-69
2022/04/05 01:51:44;;;;;;;;;;;9.80;99.90;;;;;;2077787;28;19917;-69
2022/04/05 01:52:44;;;;;;;;;;;9.80;99.90;;;;;;2073443;28;19999;-69
2022/04/05 01:53:44;;;;;;;;;;;9.80;99.90;;;;;;2073919;28;19967;-69
2022/04/05 01:54:45;;;;;;;;;;;9.80;99.90;;;;;;2079878;28;20323;-69
2022/04/05 01:55:46;;;;;;;;;;;9.80;99.90;;;;;;2081433;28;19909;-69
2022/04/05 01:56:48;;;;;;;;;;;9.80;99.90;;;;;;2079546;28;19913;-69
2022/04/05 01:57:48;;;;;;;;;;;9.80;99.90;;;;;;2079541;28;19909;-70
2022/04/05 01:58:49;;;;;;;;;;;9.80;99.90;;;;;;2084467;28;19924;-69
2022/04/05 01:59:50;;;;;;;;;;;9.80;99.90;;;;;;2080960;28;20368;-69
2022/04/05 02:00:51;;;;;;;;;;;9.80;99.90;;;;;;2081958;28;20003;-69
2022/04/05 02:01:52;;;;;;;;;;;9.70;99.90;;;;;;2082807;28;19968;-69
2022/04/05 02:02:52;;;;;;;;;;;9.70;99.90;;;;;;2080252;28;19921;-69
2022/04/05 02:03:53;;;;;;;;;;;9.70;99.90;;;;;;2081429;28;19920;-69
2022/04/05 02:04:53;;;;;;;;;;;9.70;99.90;;;;;;2077049;28;19915;-69
2022/04/05 02:05:54;;;;;;;;;;;9.70;99.90;;;;;;2076899;28;19920;-69
2022/04/05 02:06:54;;;;;;;;;;;9.70;99.90;;;;;;2083842;28;19940;-69
2022/04/05 02:07:55;;;;;;;;;;;9.80;99.90;;;;;;2081469;28;20096;-69
2022/04/05 02:08:55;;;;;;;;;;;9.80;99.90;;;;;;2081487;28;19913;-69
2022/04/05 02:09:56;;;;;;;;;;;9.80;99.90;;;;;;2082836;28;20007;-69
2022/04/05 02:10:56;;;;;;;;;;;9.80;99.90;;;;;;2079771;28;20388;-69
2022/04/05 02:11:56;;;;;;;;;;;9.80;99.90;;;;;;2081201;28;19909;-69
2022/04/05 02:12:57;;;;;;;;;;;9.80;99.90;;;;;;2077087;28;19912;-69
2022/04/05 02:13:57;;;;;;;;;;;9.70;99.90;;;;;;2076738;28;19917;-69
2022/04/05 02:14:58;;;;;;;;;;;9.80;99.90;;;;;;2084057;28;19916;-69
2022/04/05 02:16:05;;;;;;;;;;;9.80;99.90;;;;;;2081792;28;19913;-69
2022/04/05 02:17:05;;;;;;;;;;;9.80;99.90;;;;;;2074149;28;20368;-69
2022/04/05 02:18:06;;;;;;;;;;;9.80;99.90;;;;;;2074211;28;19909;-69
2022/04/05 02:19:06;;;;;;;;;;;9.80;99.90;;;;;;2080450;28;20284;-69
2022/04/05 02:20:08;;;;;;;;;;;9.80;99.90;;;;;;2079466;28;19909;-69
2022/04/05 02:21:08;;;;;;;;;;;9.80;99.90;;;;;;2080024;28;19921;-69
2022/04/05 02:22:09;;;;;;;;;;;9.80;99.90;;;;;;2084636;28;19924;-69
2022/04/05 02:23:09;;;;;;;;;;;9.80;99.90;;;;;;2083133;28;19913;-69
2022/04/05 02:24:10;;;;;;;;;;;9.80;99.90;;;;;;2083584;28;19920;-69
2022/04/05 02:25:11;;;;;;;;;;;9.80;99.90;;;;;;2082125;28;19975;-69
2022/04/05 02:26:12;;;;;;;;;;;9.80;99.90;;;;;;2079050;28;20367;-69
2022/04/05 02:27:12;;;;;;;;;;;9.80;99.90;;;;;;2072656;28;19909;-69
2022/04/05 02:28:13;;;;;;;;;;;9.80;99.90;;;;;;2072862;28;19921;-69
2022/04/05 02:29:14;;;;;;;;;;;9.80;99.90;;;;;;2080597;28;20439;-69
2022/04/05 02:30:14;;;;;;;;;;;9.80;99.90;;;;;;2084189;28;19909;-69
2022/04/05 02:31:15;;;;;;;;;;;9.80;99.90;;;;;;2082847;28;19913;-69
2022/04/05 02:32:16;;;;;;;;;;;9.80;99.90;;;;;;2083091;28;19920;-69
2022/04/05 02:33:16;;;;;;;;;;;9.80;99.90;;;;;;2076308;28;19913;-69
2022/04/05 02:34:16;;;;;;;;;;;9.80;99.90;;;;;;2072936;28;19913;-69
2022/04/05 02:35:18;;;;;;;;;;;9.80;99.90;;;;;;2072390;28;19929;-69
2022/04/05 02:36:19;;;;;;;;;;;9.80;99.90;;;;;;2078229;28;19945;-69
2022/04/05 02:37:19;;;;;;;;;;;9.80;99.90;;;;;;2077948;28;19913;-69
2022/04/05 02:38:20;;;;;;;;;;;9.80;99.90;;;;;;2083338;28;19956;-69
2022/04/05 02:39:20;;;;;;;;;;;9.80;99.90;;;;;;2080040;28;19910;-69
2022/04/05 02:40:20;;;;;;;;;;;9.80;99.90;;;;;;2083191;28;19913;-69
2022/04/05 02:41:21;;;;;;;;;;;9.80;99.90;;;;;;2080941;28;19914;-70
2022/04/05 02:42:21;;;;;;;;;;;9.80;99.90;;;;;;2081857;28;19917;-70
2022/04/05 02:43:22;;;;;;;;;;;9.70;99.90;;;;;;2079724;28;19924;-70
2022/04/05 02:44:22;;;;;;;;;;;9.80;99.90;;;;;;2077234;28;19917;-70
2022/04/05 02:45:23;;;;;;;;;;;9.80;99.90;;;;;;2080594;28;19917;-70
2022/04/05 02:46:23;;;;;;;;;;;9.80;99.90;;;;;;2083482;28;19956;-70
2022/04/05 02:47:24;;;;;;;;;;;9.80;99.90;;;;;;2078525;28;19954;-69
2022/04/05 02:48:24;;;;;;;;;;;9.80;99.90;;;;;;2082867;28;20436;-69
2022/04/05 02:49:25;;;;;;;;;;;9.80;99.90;;;;;;2080746;28;19910;-69
2022/04/05 02:50:26;;;;;;;;;;;9.80;99.90;;;;;;2072845;28;20403;-69
2022/04/05 02:51:26;;;;;;;;;;;9.80;99.90;;;;;;2075005;28;19963;-69
2022/04/05 02:52:29;;;;;;;;;;;9.80;99.90;;;;;;2078545;28;19963;-69
2022/04/05 02:53:29;;;;;;;;;;;9.80;99.90;;;;;;2081319;28;19915;-69
2022/04/05 02:54:30;;;;;;;;;;;9.80;99.90;;;;;;2083345;28;19916;-69
2022/04/05 02:55:30;;;;;;;;;;;9.80;99.90;;;;;;2078675;28;20284;-69
2022/04/05 02:56:31;;;;;;;;;;;9.80;99.90;;;;;;2070817;28;19963;-69
2022/04/05 02:57:35;;;;;;;;;;;9.80;99.90;;;;;;2069724;28;19910;-69
2022/04/05 02:58:36;;;;;;;;;;;9.80;99.90;;;;;;2081507;28;19917;-69
2022/04/05 02:59:36;;;;;;;;;;;9.80;99.90;;;;;;2077902;28;20391;-69
2022/04/05 03:00:37;;;;;;;;;;;9.80;99.90;;;;;;2080464;28;20342;-69
2022/04/05 03:01:37;;;;;;;;;;;9.80;99.90;;;;;;2081350;28;19920;-69
2022/04/05 03:02:39;;;;;;;;;;;9.80;99.90;;;;;;2083100;28;19917;-70
2022/04/05 03:03:39;;;;;;;;;;;9.80;99.90;;;;;;2079463;28;19998;-70
2022/04/05 03:04:39;;;;;;;;;;;9.80;99.90;;;;;;2078573;28;19917;-70
2022/04/05 03:05:40;;;;;;;;;;;9.80;99.90;;;;;;2081060;28;20307;-70
2022/04/05 03:06:40;;;;;;;;;;;9.80;99.90;;;;;;2081479;28;19913;-70
2022/04/05 03:07:41;;;;;;;;;;;9.70;99.90;;;;;;2078069;28;20581;-69
2022/04/05 03:08:41;;;;;;;;;;;9.80;99.90;;;;;;2080386;28;20388;-69
2022/04/05 03:09:42;;;;;;;;;;;9.70;99.90;;;;;;2081188;28;19917;-69
2022/04/05 03:10:42;;;;;;;;;;;9.70;99.90;;;;;;2079204;28;19917;-69
2022/04/05 03:11:43;;;;;;;;;;;9.70;99.90;;;;;;2083077;28;19963;-69
2022/04/05 03:12:43;;;;;;;;;;;9.70;99.90;;;;;;2072086;28;19914;-69
2022/04/05 03:13:44;;;;;;;;;;;9.80;99.90;;;;;;2073423;28;20036;-69
2022/04/05 03:14:45;;;;;;;;;;;9.70;99.90;;;;;;2081176;28;20368;-69
2022/04/05 03:15:46;;;;;;;;;;;9.70;99.90;;;;;;2077178;28;19909;-70
2022/04/05 03:16:46;;;;;;;;;;;9.70;99.90;;;;;;2080203;28;19913;-70
2022/04/05 03:17:47;;;;;;;;;;;9.70;99.90;;;;;;2083573;28;19913;-70
2022/04/05 03:18:47;;;;;;;;;;;9.70;99.90;;;;;;2082779;28;19920;-70
2022/04/05 03:19:48;;;;;;;;;;;9.60;99.90;;;;;;2082744;28;19913;-70
2022/04/05 03:20:49;;;;;;;;;;;9.70;99.90;;;;;;2080354;28;20288;-70
2022/04/05 03:21:49;;;;;;;;;;;9.70;99.90;;;;;;2079414;28;20003;-70
2022/04/05 03:22:50;;;;;;;;;;;9.70;99.90;;;;;;2072560;28;19992;-70
2022/04/05 03:23:50;;;;;;;;;;;9.70;99.90;;;;;;2071636;28;20455;-69
2022/04/05 03:24:50;;;;;;;;;;;9.70;99.90;;;;;;2080492;28;19909;-69
2022/04/05 03:25:51;;;;;;;;;;;9.70;99.90;;;;;;2079726;28;20011;-69
2022/04/05 03:26:51;;;;;;;;;;;9.70;99.90;;;;;;2082626;28;19909;-69
2022/04/05 03:27:52;;;;;;;;;;;9.80;99.90;;;;;;2082725;28;19919;-69
2022/04/05 03:28:53;;;;;;;;;;;9.70;99.90;;;;;;2080657;28;19961;-69
2022/04/05 03:29:53;;;;;;;;;;;9.70;99.90;;;;;;2081675;28;19909;-70
2022/04/05 03:30:54;;;;;;;;;;;9.70;99.90;;;;;;2078893;28;19913;-69
2022/04/05 03:31:54;;;;;;;;;;;9.80;99.90;;;;;;2080512;28;19963;-69
2022/04/05 03:32:55;;;;;;;;;;;9.70;99.90;;;;;;2079035;28;19913;-69
2022/04/05 03:33:55;;;;;;;;;;;9.70;99.90;;;;;;2078898;28;19913;-70
2022/04/05 03:34:56;;;;;;;;;;;9.80;99.90;;;;;;2082752;28;19917;-69
2022/04/05 03:35:56;;;;;;;;;;;9.70;99.90;;;;;;2082262;28;19920;-70
2022/04/05 03:36:57;;;;;;;;;;;9.70;99.90;;;;;;2080543;28;19909;-70
2022/04/05 03:37:57;;;;;;;;;;;9.70;99.90;;;;;;2081157;28;19980;-70
2022/04/05 03:38:58;;;;;;;;;;;9.80;99.90;;;;;;2078016;28;19917;-70
2022/04/05 03:39:59;;;;;;;;;;;9.80;99.90;;;;;;2078434;28;19913;-70
2022/04/05 03:40:59;;;;;;;;;;;9.80;99.90;;;;;;2078262;28;19913;-69
2022/04/05 03:42:00;;;;;;;;;;;9.70;99.90;;;;;;2073582;28;19909;-70
2022/04/05 03:43:00;;;;;;;;;;;9.80;99.90;;;;;;2074414;28;20361;-70
2022/04/05 03:44:01;;;;;;;;;;;9.70;99.90;;;;;;2081633;28;19909;-70
2022/04/05 03:45:01;;;;;;;;;;;9.70;99.90;;;;;;2079686;28;19921;-70
2022/04/05 03:46:02;;;;;;;;;;;9.80;99.90;;;;;;2079805;28;19936;-70
2022/04/05 03:47:02;;;;;;;;;;;9.80;99.90;;;;;;2079552;28;19971;-70
2022/04/05 03:48:03;;;;;;;;;;;9.80;99.90;;;;;;2078739;28;20442;-70
2022/04/05 03:49:03;;;;;;;;;;;9.80;99.90;;;;;;2082438;28;19983;-69
2022/04/05 03:50:04;;;;;;;;;;;9.80;99.90;;;;;;2079633;28;19913;-70
2022/04/05 03:51:09;;;;;;;;;;;9.80;99.90;;;;;;2074735;28;19914;-70
2022/04/05 03:52:09;;;;;;;;;;;9.80;99.90;;;;;;2070845;28;19964;-70
2022/04/05 03:53:10;;;;;;;;;;;9.80;99.90;;;;;;2081868;28;19916;-70
2022/04/05 03:54:10;;;;;;;;;;;9.70;99.90;;;;;;2079565;28;19948;-69
2022/04/05 03:55:11;;;;;;;;;;;9.80;99.90;;;;;;2079617;28;20375;-69
2022/04/05 03:56:12;;;;;;;;;;;9.80;99.90;;;;;;2077832;28;19957;-69
2022/04/05 03:57:12;;;;;;;;;;;9.70;99.90;;;;;;2083647;28;20295;-70
2022/04/05 03:58:13;;;;;;;;;;;9.80;99.90;;;;;;2083128;28;19913;-70
2022/04/05 03:59:13;;;;;;;;;;;9.70;99.90;;;;;;2081891;28;19916;-70
2022/04/05 04:00:14;;;;;;;;;;;9.70;99.90;;;;;;2078843;28;19916;-70
2022/04/05 04:01:15;;;;;;;;;;;9.70;99.90;;;;;;2081144;28;19909;-70
2022/04/05 04:02:15;;;;;;;;;;;9.70;99.90;;;;;;2078676;28;19995;-70
2022/04/05 04:03:15;;;;;;;;;;;9.70;99.90;;;;;;2080662;28;19914;-70
2022/04/05 04:04:16;;;;;;;;;;;9.70;99.90;;;;;;2076482;28;20527;-70
2022/04/05 04:05:20;;;;;;;;;;;9.70;99.90;;;;;;2082787;28;19963;-69
2022/04/05 04:06:20;;;;;;;;;;;9.70;99.90;;;;;;2081780;28;19909;-69
2022/04/05 04:07:21;;;;;;;;;;;9.70;99.90;;;;;;2080921;28;19929;-69
2022/04/05 04:08:21;;;;;;;;;;;9.70;99.90;;;;;;2080185;28;20164;-70
2022/04/05 04:09:22;;;;;;;;;;;9.70;99.90;;;;;;2081066;28;21058;-69
2022/04/05 04:10:22;;;;;;;;;;;9.70;99.90;;;;;;2078754;28;19967;-69
2022/04/05 04:11:23;;;;;;;;;;;9.80;99.90;;;;;;2080152;28;19917;-69
2022/04/05 04:12:23;;;;;;;;;;;9.70;99.90;;;;;;2077060;28;20392;-69
2022/04/05 04:13:24;;;;;;;;;;;9.70;99.90;;;;;;2072148;28;19909;-69
2022/04/05 04:14:24;;;;;;;;;;;9.70;99.90;;;;;;2074664;28;20052;-70
2022/04/05 04:15:25;;;;;;;;;;;9.80;99.90;;;;;;2080664;28;19959;-69
2022/04/05 04:16:25;;;;;;;;;;;9.70;99.90;;;;;;2082352;28;19909;-69
2022/04/05 04:17:26;;;;;;;;;;;9.80;99.90;;;;;;2079259;28;19917;-69
2022/04/05 04:18:26;;;;;;;;;;;9.70;99.90;;;;;;2077812;28;19968;-69
2022/04/05 04:19:27;;;;;;;;;;;9.70;99.90;;;;;;2070772;28;19914;-69
2022/04/05 04:20:27;;;;;;;;;;;9.80;99.90;;;;;;2069332;28;19945;-69
2022/04/05 04:21:28;;;;;;;;;;;9.70;99.90;;;;;;2080673;28;19909;-70
2022/04/05 04:22:29;;;;;;;;;;;9.70;99.90;;;;;;2083150;28;19924;-70
2022/04/05 04:23:30;;;;;;;;;;;9.70;99.90;;;;;;2082374;28;19917;-70
2022/04/05 04:24:30;;;;;;;;;;;9.70;99.90;;;;;;2081994;28;19909;-69
2022/04/05 04:25:31;;;;;;;;;;;9.70;99.90;;;;;;2077852;28;20401;-69
2022/04/05 04:26:31;;;;;;;;;;;9.70;99.90;;;;;;2077520;28;19910;-70
2022/04/05 04:27:33;;;;;;;;;;;9.70;99.90;;;;;;2078886;28;20403;-70
2022/04/05 04:28:34;;;;;;;;;;;9.70;99.90;;;;;;2078615;28;19921;-70
2022/04/05 04:29:34;;;;;;;;;;;9.70;99.90;;;;;;2082424;28;19910;-70
2022/04/05 04:30:36;;;;;;;;;;;9.70;99.90;;;;;;2082983;28;19963;-70
2022/04/05 04:31:37;;;;;;;;;;;9.70;99.90;;;;;;2074949;28;19917;-70
2022/04/05 04:32:37;;;;;;;;;;;9.70;99.90;;;;;;2074287;28;20368;-70
2022/04/05 04:33:37;;;;;;;;;;;9.70;99.90;;;;;;2079897;28;19909;-69
2022/04/05 04:34:38;;;;;;;;;;;9.70;99.90;;;;;;2081868;28;19913;-69
2022/04/05 04:35:40;;;;;;;;;;;9.70;99.90;;;;;;2078894;28;19913;-69
2022/04/05 04:36:40;;;;;;;;;;;9.70;99.90;;;;;;2080897;28;19916;-69
2022/04/05 04:37:41;;;;;;;;;;;9.70;99.90;;;;;;2081634;28;19913;-70
2022/04/05 04:38:41;;;;;;;;;;;9.70;99.90;;;;;;2073344;28;19909;-69
2022/04/05 04:39:42;;;;;;;;;;;9.70;99.90;;;;;;2075044;28;20122;-69
2022/04/05 04:40:50;;;;;;;;;;;9.70;99.90;;;;;;2082963;28;19917;-69
2022/04/05 04:41:50;;;;;;;;;;;9.70;99.90;;;;;;2079725;28;19978;-69
2022/04/05 04:42:51;;;;;;;;;;;9.70;99.90;;;;;;2081471;28;20331;-70
2022/04/05 04:43:51;;;;;;;;;;;9.70;99.90;;;;;;2077936;28;19988;-70
2022/04/05 04:44:52;;;;;;;;;;;9.70;99.90;;;;;;2081718;28;20455;-70
2022/04/05 04:45:53;;;;;;;;;;;9.70;99.90;;;;;;2083422;28;19917;-70
2022/04/05 04:46:54;;;;;;;;;;;9.70;99.90;;;;;;2081343;28;20012;-70
2022/04/05 04:47:54;;;;;;;;;;;9.70;99.90;;;;;;2071490;28;19914;-69
2022/04/05 04:48:55;;;;;;;;;;;9.70;99.90;;;;;;2068593;28;20064;-70
2022/04/05 04:49:55;;;;;;;;;;;9.70;99.90;;;;;;2072346;28;19913;-70
2022/04/05 04:50:56;;;;;;;;;;;9.70;99.90;;;;;;2072482;28;19913;-70
2022/04/05 04:51:57;;;;;;;;;;;9.70;99.90;;;;;;2078741;28;19916;-70
2022/04/05 04:52:57;;;;;;;;;;;9.70;99.90;;;;;;2084148;28;19920;-69
2022/04/05 04:53:57;;;;;;;;;;;9.70;99.90;;;;;;2084455;28;20289;-69
2022/04/05 04:54:58;;;;;;;;;;;9.70;99.90;;;;;;2082329;28;19909;-69
2022/04/05 04:55:59;;;;;;;;;;;9.70;99.90;;;;;;2083041;28;20400;-69
2022/04/05 04:56:59;;;;;;;;;;;9.70;99.90;;;;;;2080956;28;20004;-69
2022/04/05 04:57:59;;;;;;;;;;;9.70;99.90;;;;;;2073433;28;19910;-70
2022/04/05 04:59:00;;;;;;;;;;;9.70;99.90;;;;;;2073159;28;19959;-69
2022/04/05 05:00:00;;;;;;;;;;;9.60;99.90;;;;;;2079186;28;19961;-70
2022/04/05 05:01:01;;;;;;;;;;;9.70;99.90;;;;;;2084239;28;20360;-70
2022/04/05 05:02:01;;;;;;;;;;;9.70;99.90;;;;;;2084399;28;19932;-69
2022/04/05 05:03:02;;;;;;;;;;;9.70;99.90;;;;;;2082255;28;19913;-70
2022/04/05 05:04:02;;;;;;;;;;;9.70;99.90;;;;;;2080749;28;19996;-70
2022/04/05 05:05:03;;;;;;;;;;;9.70;99.90;;;;;;2080294;28;19917;-70
2022/04/05 05:06:04;;;;;;;;;;;9.70;99.90;;;;;;2079272;28;19921;-70
2022/04/05 05:07:05;;;;;;;;;;;9.70;99.90;;;;;;2079357;28;19989;-70
2022/04/05 05:08:05;;;;;;;;;;;9.70;99.90;;;;;;2081963;28;19917;-70
2022/04/05 05:09:06;;;;;;;;;;;9.70;99.90;;;;;;2084165;28;20327;-69
2022/04/05 05:10:07;;;;;;;;;;;9.70;99.90;;;;;;2083743;28;19952;-70
2022/04/05 05:11:07;;;;;;;;;;;9.70;99.90;;;;;;2082460;28;19916;-69
2022/04/05 05:12:10;;;;;;;;;;;9.70;99.90;;;;;;2081683;28;19956;-70
2022/04/05 05:13:10;;;;;;;;;;;9.60;99.90;;;;;;2078681;28;19916;-70
2022/04/05 05:14:11;;;;;;;;;;;9.70;99.90;;;;;;2080481;28;19913;-70
2022/04/05 05:15:15;;;;;;;;;;;9.70;99.90;;;;;;2077897;28;19910;-69
2022/04/05 05:16:15;;;;;;;;;;;9.70;99.90;;;;;;2080457;28;19914;-69
2022/04/05 05:17:16;;;;;;;;;;;9.70;99.90;;;;;;2077010;28;19949;-69
2022/04/05 05:18:16;;;;;;;;;;;9.70;99.90;;;;;;2079466;28;19920;-69
2022/04/05 05:19:16;;;;;;;;;;;9.70;99.90;;;;;;2081003;28;19913;-69
2022/04/05 05:20:17;;;;;;;;;;;9.70;99.90;;;;;;2072172;28;20012;-69
2022/04/05 05:21:19;;;;;;;;;;;9.70;99.90;;;;;;2073656;28;19920;-69
2022/04/05 05:22:19;;;;;;;;;;;9.70;99.90;;;;;;2079821;28;20012;-69
2022/04/05 05:23:20;;;;;;;;;;;9.60;99.90;;;;;;2077975;28;19910;-69
2022/04/05 05:24:20;;;;;;;;;;;9.60;99.90;;;;;;2083492;28;19917;-70
2022/04/05 05:25:20;;;;;;;;;;;9.60;99.90;;;;;;2082582;28;19909;-70
2022/04/05 05:26:21;;;;;;;;;;;9.70;99.90;;;;;;2080150;28;20377;-70
2022/04/05 05:27:21;;;;;;;;;;;9.60;99.90;;;;;;2083211;28;20051;-70
2022/04/05 05:28:22;;;;;;;;;;;9.60;99.90;;;;;;2080304;28;20338;-70
2022/04/05 05:29:22;;;;;;;;;;;9.70;99.90;;;;;;2082420;28;19917;-70
2022/04/05 05:30:23;;;;;;;;;;;9.60;99.90;;;;;;2078148;28;20017;-69
2022/04/05 05:31:23;;;;;;;;;;;9.70;99.90;;;;;;2077796;28;19920;-69
2022/04/05 05:32:24;;;;;;;;;;;9.60;99.90;;;;;;2080720;28;19958;-69
2022/04/05 05:33:24;;;;;;;;;;;9.60;99.90;;;;;;2071847;28;19913;-69
2022/04/05 05:34:25;;;;;;;;;;;9.60;99.90;;;;;;2076115;28;19921;-69
2022/04/05 05:35:25;;;;;;;;;;;9.70;99.90;;;;;;2080371;28;20384;-69
2022/04/05 05:36:26;;;;;;;;;;;9.60;99.90;;;;;;2079727;28;19913;-69
2022/04/05 05:37:26;;;;;;;;;;;9.70;99.90;;;;;;2081829;28;20384;-69
2022/04/05 05:38:27;;;;;;;;;;;9.60;99.90;;;;;;2077732;28;19963;-70
2022/04/05 05:39:28;;;;;;;;;;;9.60;99.90;;;;;;2078682;28;19914;-70
2022/04/05 05:40:28;;;;;;;;;;;9.70;99.90;;;;;;2084917;28;19913;-70
2022/04/05 05:41:30;;;;;;;;;;;9.60;99.90;;;;;;2082655;28;19920;-69
2022/04/05 05:42:30;;;;;;;;;;;9.70;99.90;;;;;;2080488;28;20012;-70
2022/04/05 05:43:32;;;;;;;;;;;9.70;99.90;;;;;;2073960;28;19957;-69
2022/04/05 05:44:33;;;;;;;;;;;9.70;99.90;;;;;;2073435;28;19909;-69
2022/04/05 05:45:35;;;;;;;;;;;9.70;99.90;;;;;;2080973;28;19913;-69
2022/04/05 05:46:36;;;;;;;;;;;9.70;99.90;;;;;;2077754;28;20288;-70
2022/04/05 05:47:36;;;;;;;;;;;9.70;99.90;;;;;;2083309;28;19916;-70
2022/04/05 05:48:37;;;;;;;;;;;9.70;99.90;;;;;;2074806;28;19913;-70
2022/04/05 05:49:38;;;;;;;;;;;9.70;99.90;;;;;;2072210;28;20483;-70
2022/04/05 05:50:39;;;;;;;;;;;9.70;99.90;;;;;;2083200;28;20004;-70
2022/04/05 05:51:39;;;;;;;;;;;9.70;99.90;;;;;;2080284;28;19909;-70
2022/04/05 05:52:41;;;;;;;;;;;9.70;99.90;;;;;;2080871;28;20007;-70
2022/04/05 05:53:41;;;;;;;;;;;9.70;99.90;;;;;;2081179;28;19913;-69
2022/04/05 05:54:42;;;;;;;;;;;9.70;99.90;;;;;;2077507;28;19916;-69
2022/04/05 05:55:42;;;;;;;;;;;9.70;99.90;;;;;;2081606;28;20056;-70
2022/04/05 05:56:43;;;;;;;;;;;9.70;99.90;;;;;;2072751;28;20008;-69
2022/04/05 05:57:43;;;;;;;;;;;9.70;99.90;;;;;;2073292;28;19913;-69
2022/04/05 05:58:44;;;;;;;;;;;9.70;99.90;;;;;;2072153;28;19914;-69
2022/04/05 05:59:44;;;;;;;;;;;9.70;99.90;;;;;;2069567;28;19951;-70